Time;durP1;ratioP1;P1;durP2;ratioP2;P2;SDS_P1;SDS_P2;PMS_P1;PMS_P2;Temp;Humidity;BMP_temperature;BMP_pressure;BME280_temperature;BME280_humidity;BME280_pressure;Samples;Min_cycle;Max_cycle;Signal;HPM_P1;HPM_P2
2023/05/28 00:00:44;;;;;;;27.43;11.40;;;11.20;99.90;;;;;;4988476;28;20451;-55
2023/05/28 00:03:10;;;;;;;22.37;10.17;;;11.10;21.10;;;;;;4990053;28;20534;-56
2023/05/28 00:05:35;;;;;;;28.90;9.80;;;11.10;1.00;;;;;;4987186;28;20863;-55
2023/05/28 00:08:01;;;;;;;20.13;9.23;;;11.00;1.00;;;;;;4988185;28;20523;-55
2023/05/28 00:10:27;;;;;;;20.40;12.00;;;11.00;1.00;;;;;;4988916;28;20225;-55
2023/05/28 00:12:53;;;;;;;26.13;12.77;;;10.90;1.00;;;;;;4989157;28;20259;-55
2023/05/28 00:15:18;;;;;;;26.40;12.73;;;10.90;1.00;;;;;;4989068;28;20791;-56
2023/05/28 00:17:44;;;;;;;25.67;13.23;;;10.80;1.00;;;;;;4992691;28;20435;-56
2023/05/28 00:20:10;;;;;;;23.63;12.60;;;10.80;1.00;;;;;;4990168;28;20181;-56
2023/05/28 00:22:36;;;;;;;23.77;13.40;;;10.70;1.00;;;;;;4989497;28;20283;-56
2023/05/28 00:25:01;;;;;;;23.53;12.23;;;10.70;1.00;;;;;;4987662;28;20519;-55
2023/05/28 00:27:27;;;;;;;27.33;13.80;;;10.60;1.00;;;;;;4989914;28;20224;-55
2023/05/28 00:29:53;;;;;;;28.60;14.87;;;10.60;99.90;;;;;;4983745;28;20298;-55
2023/05/28 00:32:18;;;;;;;22.10;13.80;;;10.50;99.90;;;;;;4990188;28;20212;-55
2023/05/28 00:34:44;;;;;;;26.20;13.13;;;10.50;99.90;;;;;;4985980;28;20189;-55
2023/05/28 00:37:10;;;;;;;26.70;14.13;;;10.40;99.90;;;;;;4991308;28;20829;-55
2023/05/28 00:39:36;;;;;;;24.80;10.93;;;10.40;99.90;;;;;;4986589;28;20436;-55
2023/05/28 00:42:10;;;;;;;21.00;10.70;;;10.40;1.00;;;;;;4983796;28;20215;-55
2023/05/28 00:44:36;;;;;;;24.17;10.30;;;10.40;66.80;;;;;;4988607;28;20191;-55
2023/05/28 00:47:02;;;;;;;16.00;8.30;;;10.40;99.90;;;;;;4984814;28;20436;-56
2023/05/28 00:49:28;;;;;;;18.23;8.97;;;10.40;99.90;;;;;;4985827;28;20435;-56
2023/05/28 00:51:55;;;;;;;20.37;9.13;;;10.40;99.90;;;;;;4989404;28;20221;-55
2023/05/28 00:54:22;;;;;;;15.43;8.00;;;10.40;99.90;;;;;;4987215;28;20877;-55
2023/05/28 00:56:48;;;;;;;20.27;7.57;;;10.40;1.00;;;;;;4999293;28;20482;-55
2023/05/28 00:59:16;;;;;;;15.93;7.50;;;10.40;99.90;;;;;;5002027;28;20436;-56
2023/05/28 01:01:42;;;;;;;21.80;7.37;;;10.40;1.00;;;;;;5004540;28;20242;-56
2023/05/28 01:04:08;;;;;;;14.03;6.90;;;10.40;8.70;;;;;;5003480;28;20543;-55
2023/05/28 01:06:37;;;;;;;26.27;8.10;;;10.50;1.00;;;;;;5010651;28;20451;-55
2023/05/28 01:09:04;;;;;;;20.03;8.30;;;10.50;99.90;;;;;;5003925;28;20192;-55
2023/05/28 01:11:31;;;;;;;22.63;7.70;;;10.40;99.90;;;;;;5003395;28;20521;-55
2023/05/28 01:13:57;;;;;;;17.47;8.73;;;10.40;60.20;;;;;;5004076;28;20440;-55
2023/05/28 01:16:22;;;;;;;24.63;10.20;;;10.40;1.00;;;;;;5007647;28;20992;-55
2023/05/28 01:18:48;;;;;;;19.53;9.00;;;10.30;99.90;;;;;;4999222;28;20185;-55
2023/05/28 01:21:14;;;;;;;17.23;8.10;;;10.30;1.00;;;;;;5009683;28;20246;-55
2023/05/28 01:23:44;;;;;;;22.30;8.53;;;10.20;1.00;;;;;;5002222;28;20268;-55
2023/05/28 01:26:12;;;;;;;22.23;9.50;;;10.20;99.90;;;;;;5003293;28;20574;-55
2023/05/28 01:28:43;;;;;;;22.27;9.60;;;10.20;99.90;;;;;;5005561;28;20507;-55
2023/05/28 01:31:12;;;;;;;21.30;9.40;;;10.20;99.90;;;;;;5002002;28;20510;-55
2023/05/28 01:33:41;;;;;;;23.03;9.70;;;10.10;99.90;;;;;;5003649;28;20451;-55
2023/05/28 01:36:12;;;;;;;19.70;8.13;;;10.10;1.00;;;;;;5002928;28;20958;-55
2023/05/28 01:38:39;;;;;;;20.93;7.73;;;10.10;99.90;;;;;;5002529;28;20431;-55
2023/05/28 01:41:06;;;;;;;22.47;8.53;;;10.10;99.90;;;;;;5000097;28;20506;-55
2023/05/28 01:43:32;;;;;;;21.20;8.40;;;10.10;1.00;;;;;;5004192;28;20436;-55
2023/05/28 01:45:58;;;;;;;18.50;8.50;;;10.10;43.70;;;;;;5003464;28;20431;-55
2023/05/28 01:48:24;;;;;;;19.20;9.30;;;10.00;99.90;;;;;;5009118;28;20442;-55
2023/05/28 01:50:52;;;;;;;19.03;8.17;;;10.00;99.90;;;;;;5000891;28;20243;-55
2023/05/28 01:53:18;;;;;;;21.87;8.20;;;10.00;99.90;;;;;;5004803;28;20279;-55
2023/05/28 01:55:44;;;;;;;16.80;7.80;;;9.90;99.90;;;;;;4962103;28;1076206;-55
2023/05/28 01:58:10;;;;;;;23.90;8.43;;;9.80;99.90;;;;;;5005683;28;20183;-55
2023/05/28 02:00:42;;;;;;;23.23;8.57;;;9.80;99.90;;;;;;5005656;28;20191;-55
2023/05/28 02:03:11;;;;;;;16.37;9.00;;;9.70;99.90;;;;;;5006296;28;20192;-55
2023/05/28 02:05:37;;;;;;;19.00;7.93;;;9.70;99.90;;;;;;5005637;28;20442;-55
2023/05/28 02:08:03;;;;;;;23.60;8.23;;;9.70;1.00;;;;;;5004627;28;20438;-55
2023/05/28 02:10:28;;;;;;;17.30;7.87;;;9.60;1.00;;;;;;5009126;28;20498;-55
2023/05/28 02:12:54;;;;;;;22.67;10.10;;;9.60;1.00;;;;;;5001181;28;20640;-55
2023/05/28 02:15:21;;;;;;;19.40;8.93;;;9.50;1.00;;;;;;5010213;28;20333;-55
2023/05/28 02:17:47;;;;;;;17.43;8.40;;;9.50;99.90;;;;;;5001508;28;20216;-55
2023/05/28 02:20:12;;;;;;;20.97;8.53;;;9.40;99.90;;;;;;5003634;28;20799;-55
2023/05/28 02:22:38;;;;;;;27.07;11.97;;;9.40;1.00;;;;;;5006392;28;20188;-54
2023/05/28 02:25:05;;;;;;;28.47;16.67;;;9.40;1.00;;;;;;5008332;28;20195;-55
2023/05/28 02:27:30;;;;;;;36.73;20.60;;;9.30;99.90;;;;;;5005576;28;20199;-55
2023/05/28 02:29:56;;;;;;;84.53;45.33;;;9.30;99.90;;;;;;5007971;28;20767;-55
2023/05/28 02:32:22;;;;;;;78.60;43.80;;;9.30;99.90;;;;;;5006975;28;20187;-55
2023/05/28 02:34:48;;;;;;;75.10;42.53;;;9.20;1.00;;;;;;5003145;28;20192;-56
2023/05/28 02:37:14;;;;;;;51.57;30.93;;;9.20;1.00;;;;;;5000975;28;20447;-55
2023/05/28 02:39:40;;;;;;;49.40;25.40;;;9.20;99.90;;;;;;5005959;28;20199;-55
2023/05/28 02:42:05;;;;;;;45.37;27.20;;;9.10;1.00;;;;;;5001267;28;20250;-55
2023/05/28 02:44:31;;;;;;;41.77;24.13;;;9.10;99.90;;;;;;5001022;28;20259;-54
2023/05/28 02:46:57;;;;;;;33.93;20.23;;;9.10;99.90;;;;;;5002036;28;20583;-54
2023/05/28 02:49:22;;;;;;;29.50;17.10;;;9.00;57.20;;;;;;5007854;28;20238;-54
2023/05/28 02:51:48;;;;;;;30.67;14.90;;;9.00;99.90;;;;;;5001501;28;20216;-55
2023/05/28 02:54:14;;;;;;;24.60;13.40;;;9.10;99.90;;;;;;5001102;28;20194;-54
2023/05/28 02:56:40;;;;;;;33.53;15.13;;;9.00;1.00;;;;;;4999170;28;20232;-55
2023/05/28 02:59:05;;;;;;;18.27;12.00;;;9.00;1.00;;;;;;5001396;28;20227;-55
2023/05/28 03:01:31;;;;;;;22.67;11.50;;;9.00;1.00;;;;;;5000365;28;20195;-55
2023/05/28 03:03:56;;;;;;;25.57;14.00;;;9.00;1.00;;;;;;5007309;28;20196;-55
2023/05/28 03:06:22;;;;;;;29.17;15.90;;;9.00;88.60;;;;;;5005150;28;20281;-54
2023/05/28 03:08:48;;;;;;;22.23;14.07;;;8.90;9.70;;;;;;5002238;28;20219;-54
2023/05/28 03:11:13;;;;;;;25.23;13.00;;;8.90;99.90;;;;;;4999606;28;20560;-54
2023/05/28 03:13:39;;;;;;;19.70;11.50;;;8.80;1.00;;;;;;4999444;28;20196;-54
2023/05/28 03:16:05;;;;;;;23.97;11.00;;;8.80;9.80;;;;;;5001937;28;20288;-55
2023/05/28 03:18:31;;;;;;;23.73;11.70;;;8.90;99.90;;;;;;5001279;28;20196;-55
2023/05/28 03:20:57;;;;;;;24.47;11.77;;;8.90;99.90;;;;;;5001507;28;20438;-55
2023/05/28 03:23:22;;;;;;;22.00;11.10;;;8.90;99.90;;;;;;5004246;28;20532;-54
2023/05/28 03:25:48;;;;;;;27.93;12.40;;;8.90;99.90;;;;;;5000376;28;20196;-55
2023/05/28 03:28:13;;;;;;;22.43;10.53;;;8.90;99.90;;;;;;5003784;28;20204;-55
2023/05/28 03:30:39;;;;;;;19.90;10.30;;;8.90;99.90;;;;;;5000072;28;20645;-54
2023/05/28 03:33:05;;;;;;;21.30;10.80;;;8.90;99.90;;;;;;5004358;28;20565;-55
2023/05/28 03:35:30;;;;;;;22.23;11.03;;;8.90;99.90;;;;;;5007976;28;20199;-54
2023/05/28 03:37:56;;;;;;;21.83;11.47;;;8.90;99.90;;;;;;5006952;28;20219;-54
2023/05/28 03:40:21;;;;;;;18.90;10.10;;;8.90;99.90;;;;;;5007070;28;20179;-55
2023/05/28 03:42:48;;;;;;;25.00;10.57;;;8.90;99.90;;;;;;5005938;28;20196;-54
2023/05/28 03:45:14;;;;;;;20.00;10.07;;;8.90;99.90;;;;;;5005704;28;20199;-55
2023/05/28 03:47:39;;;;;;;22.20;10.20;;;8.90;99.90;;;;;;5002313;28;20435;-54
2023/05/28 03:50:06;;;;;;;20.43;9.63;;;8.90;99.90;;;;;;5006293;28;21126;-55
2023/05/28 03:52:32;;;;;;;24.87;10.50;;;8.90;99.90;;;;;;5007559;28;20187;-55
2023/05/28 03:54:58;;;;;;;26.37;9.53;;;8.90;99.90;;;;;;5006422;28;20459;-55
2023/05/28 03:57:23;;;;;;;18.63;10.20;;;9.00;99.90;;;;;;5006109;28;20525;-54
2023/05/28 03:59:49;;;;;;;15.40;8.80;;;9.00;99.90;;;;;;5005753;28;20435;-54
2023/05/28 04:02:14;;;;;;;17.33;10.03;;;9.10;99.90;;;;;;5004951;28;20563;-55
2023/05/28 04:04:40;;;;;;;22.40;10.47;;;9.10;99.90;;;;;;5003934;28;20276;-54
2023/05/28 04:07:07;;;;;;;15.90;9.63;;;9.20;99.90;;;;;;5005759;28;20643;-55
2023/05/28 04:09:32;;;;;;;21.63;10.87;;;9.20;99.90;;;;;;5001672;28;20198;-55
2023/05/28 04:11:58;;;;;;;21.17;10.40;;;9.30;99.90;;;;;;5004848;28;20471;-54
2023/05/28 04:14:24;;;;;;;26.33;10.67;;;9.30;99.90;;;;;;5008500;28;20259;-55
2023/05/28 04:16:50;;;;;;;20.23;10.53;;;9.30;99.90;;;;;;5011984;28;20196;-54
2023/05/28 04:19:16;;;;;;;21.67;10.40;;;9.30;99.90;;;;;;5003940;28;20785;-54
2023/05/28 04:21:41;;;;;;;19.33;10.30;;;9.40;99.90;;;;;;5014353;28;20211;-54
2023/05/28 04:24:07;;;;;;;18.03;10.17;;;9.40;99.90;;;;;;5003383;28;20181;-54
2023/05/28 04:26:32;;;;;;;18.23;10.67;;;9.50;99.90;;;;;;5007923;28;20184;-54
2023/05/28 04:28:59;;;;;;;20.10;10.40;;;9.60;99.90;;;;;;5004005;28;20181;-55
2023/05/28 04:31:27;;;;;;;19.53;10.70;;;9.60;99.90;;;;;;5012347;28;20234;-54
2023/05/28 04:33:53;;;;;;;24.47;11.53;;;9.80;99.90;;;;;;5009865;28;20456;-54
2023/05/28 04:36:19;;;;;;;24.87;11.87;;;9.90;99.90;;;;;;5004639;28;20444;-54
2023/05/28 04:38:45;;;;;;;27.40;12.00;;;10.00;99.90;;;;;;5006074;28;20426;-55
2023/05/28 04:41:14;;;;;;;22.60;11.60;;;10.10;99.90;;;;;;5002753;28;20471;-55
2023/05/28 04:43:42;;;;;;;22.00;10.50;;;10.30;99.90;;;;;;5002651;28;20455;-54
2023/05/28 04:46:08;;;;;;;22.50;10.87;;;10.50;99.90;;;;;;5007849;28;20545;-54
2023/05/28 04:48:37;;;;;;;25.03;10.10;;;10.60;85.00;;;;;;5008542;28;20440;-55
2023/05/28 04:51:03;;;;;;;18.70;10.40;;;10.80;1.00;;;;;;5007952;28;20568;-54
2023/05/28 04:53:29;;;;;;;24.50;10.63;;;11.00;1.00;;;;;;5009654;28;20446;-54
2023/05/28 04:55:55;;;;;;;19.67;10.60;;;11.10;99.90;;;;;;5004377;28;20537;-54
2023/05/28 04:58:21;;;;;;;23.37;10.20;;;11.30;99.90;;;;;;5006398;28;20439;-54
2023/05/28 05:00:47;;;;;;;20.40;10.27;;;11.40;1.00;;;;;;5008775;28;20439;-54
2023/05/28 05:03:14;;;;;;;24.50;10.80;;;11.60;58.80;;;;;;5004902;28;20188;-54
2023/05/28 05:05:40;;;;;;;21.80;10.10;;;11.80;99.90;;;;;;5007336;28;20447;-55
2023/05/28 05:08:06;;;;;;;23.03;11.13;;;12.00;1.00;;;;;;5004793;28;20435;-55
2023/05/28 05:10:32;;;;;;;16.60;10.17;;;12.10;99.90;;;;;;5005545;28;20994;-55
2023/05/28 05:12:59;;;;;;;22.40;10.20;;;12.20;99.90;;;;;;5011159;28;20440;-55
2023/05/28 05:15:26;;;;;;;20.13;10.00;;;12.50;99.90;;;;;;5009520;28;20866;-55
2023/05/28 05:17:52;;;;;;;18.30;10.27;;;12.70;1.00;;;;;;5007896;28;20481;-55
2023/05/28 05:20:17;;;;;;;16.73;9.03;;;13.00;1.00;;;;;;5006472;28;20450;-57
2023/05/28 05:22:43;;;;;;;20.90;8.67;;;13.30;1.00;;;;;;5004706;28;20812;-55
2023/05/28 05:25:09;;;;;;;16.03;8.37;;;13.50;99.90;;;;;;5004094;28;20195;-56
2023/05/28 05:27:35;;;;;;;19.87;9.20;;;13.90;99.90;;;;;;5007712;28;20196;-56
2023/05/28 05:30:02;;;;;;;18.33;8.70;;;14.20;99.90;;;;;;5005100;28;20445;-57
2023/05/28 05:32:27;;;;;;;19.93;8.50;;;14.30;99.90;;;;;;5011610;28;20493;-57
2023/05/28 05:34:53;;;;;;;19.87;8.77;;;14.40;61.60;;;;;;5009554;28;20982;-56
2023/05/28 05:37:18;;;;;;;16.17;9.00;;;14.40;47.00;;;;;;5005855;28;20243;-56
2023/05/28 05:39:44;;;;;;;18.17;8.37;;;14.30;31.00;;;;;;5006161;28;20205;-56
2023/05/28 05:42:10;;;;;;;14.37;8.07;;;14.30;45.80;;;;;;5002973;28;20194;-57
2023/05/28 05:44:35;;;;;;;15.80;8.27;;;14.30;55.20;;;;;;5012158;28;20289;-57
2023/05/28 05:47:01;;;;;;;17.50;8.90;;;14.20;56.80;;;;;;5004896;28;20192;-56
2023/05/28 05:49:26;;;;;;;18.40;8.90;;;14.10;41.70;;;;;;5009641;28;20188;-55
2023/05/28 05:51:52;;;;;;;20.90;9.30;;;14.10;72.50;;;;;;5008333;28;20218;-56
2023/05/28 05:54:17;;;;;;;21.57;9.00;;;14.10;59.90;;;;;;5004492;28;20643;-56
2023/05/28 05:56:43;;;;;;;22.23;9.60;;;14.10;99.90;;;;;;5004934;28;20237;-57
2023/05/28 05:59:09;;;;;;;22.37;10.60;;;14.30;99.90;;;;;;5001786;28;20287;-56
2023/05/28 06:01:35;;;;;;;21.37;10.30;;;14.40;53.10;;;;;;5007604;28;20216;-56
2023/05/28 06:04:01;;;;;;;21.37;9.73;;;14.40;74.00;;;;;;5008675;28;20284;-58
2023/05/28 06:06:26;;;;;;;15.63;9.23;;;14.60;73.10;;;;;;5008098;28;21282;-57
2023/05/28 06:08:52;;;;;;;20.70;9.90;;;14.60;31.90;;;;;;5008371;28;20185;-56
2023/05/28 06:11:18;;;;;;;23.80;10.90;;;14.70;14.30;;;;;;5003486;28;20304;-57
2023/05/28 06:13:43;;;;;;;21.77;9.53;;;14.90;1.00;;;;;;5009163;28;20281;-57
2023/05/28 06:16:10;;;;;;;21.93;9.97;;;15.20;1.00;;;;;;5009105;28;20185;-58
2023/05/28 06:18:36;;;;;;;19.57;9.23;;;15.50;1.00;;;;;;5002382;28;20209;-57
2023/05/28 06:21:03;;;;;;;15.43;9.20;;;16.00;1.00;;;;;;5004414;28;20444;-57
2023/05/28 06:23:29;;;;;;;21.40;9.40;;;16.30;1.00;;;;;;5005711;28;20203;-58
2023/05/28 06:25:54;;;;;;;15.30;8.67;;;16.60;1.00;;;;;;5001461;28;20444;-58
2023/05/28 06:28:20;;;;;;;19.33;7.77;;;16.80;1.00;;;;;;5002994;28;20437;-56
2023/05/28 06:30:46;;;;;;;18.00;7.63;;;16.80;1.00;;;;;;5002831;28;20222;-57
2023/05/28 06:33:11;;;;;;;18.80;7.80;;;16.60;1.00;;;;;;5001127;28;20254;-58
2023/05/28 06:35:37;;;;;;;16.80;7.53;;;16.60;1.00;;;;;;5003075;28;20673;-58
2023/05/28 06:38:03;;;;;;;16.50;7.10;;;16.80;1.00;;;;;;5007253;28;20277;-57
2023/05/28 06:40:28;;;;;;;16.20;7.67;;;17.40;1.00;;;;;;5008164;28;20200;-58
2023/05/28 06:42:54;;;;;;;18.00;7.10;;;17.80;1.00;;;;;;5005914;28;20464;-57
2023/05/28 06:45:20;;;;;;;20.67;7.00;;;18.10;1.00;;;;;;5004626;28;20534;-58
2023/05/28 06:47:49;;;;;;;20.77;7.40;;;18.30;1.00;;;;;;4999504;28;20223;-57
2023/05/28 06:50:15;;;;;;;18.43;7.23;;;18.60;1.00;;;;;;5005034;28;20523;-57
2023/05/28 06:52:41;;;;;;;17.63;7.50;;;18.50;1.00;;;;;;5003991;28;20534;-58
2023/05/28 06:55:08;;;;;;;17.23;7.53;;;18.40;1.00;;;;;;5005796;28;22349;-57
2023/05/28 06:57:36;;;;;;;15.03;6.50;;;18.30;1.00;;;;;;5007049;28;20452;-56
2023/05/28 07:00:03;;;;;;;17.60;6.63;;;18.50;1.00;;;;;;5001194;28;20441;-58
2023/05/28 07:02:29;;;;;;;13.27;6.80;;;18.70;1.00;;;;;;5005848;28;20447;-58
2023/05/28 07:04:55;;;;;;;16.87;7.10;;;18.50;1.00;;;;;;5002962;28;20451;-59
2023/05/28 07:07:21;;;;;;;15.67;6.80;;;18.30;1.00;;;;;;5006361;28;20928;-56
2023/05/28 07:09:46;;;;;;;13.33;6.93;;;18.10;1.00;;;;;;5001884;28;20210;-57
2023/05/28 07:12:12;;;;;;;15.33;6.30;;;17.90;1.00;;;;;;5003218;28;20227;-58
2023/05/28 07:14:37;;;;;;;16.23;6.70;;;17.70;1.00;;;;;;5001622;28;20190;-58
2023/05/28 07:17:03;;;;;;;16.83;6.20;;;17.70;1.00;;;;;;4996377;28;20220;-58
2023/05/28 07:19:30;;;;;;;22.13;6.70;;;17.60;1.00;;;;;;5000609;28;20282;-56
2023/05/28 07:21:56;;;;;;;17.73;6.37;;;17.60;1.00;;;;;;5004190;28;20220;-57
2023/05/28 07:24:22;;;;;;;15.67;6.53;;;17.60;1.00;;;;;;5008039;28;20959;-58
2023/05/28 07:26:47;;;;;;;17.27;6.40;;;17.60;1.00;;;;;;5003665;28;20203;-57
2023/05/28 07:29:14;;;;;;;11.80;5.77;;;17.90;1.00;;;;;;5002234;28;20320;-58
2023/05/28 07:31:40;;;;;;;19.13;6.90;;;18.20;1.00;;;;;;5007796;28;20222;-58
2023/05/28 07:34:06;;;;;;;15.53;5.33;;;18.40;1.00;;;;;;5002524;28;20963;-58
2023/05/28 07:36:31;;;;;;;17.93;6.47;;;18.50;1.00;;;;;;4999454;28;20254;-58
2023/05/28 07:38:57;;;;;;;15.53;6.20;;;18.70;1.00;;;;;;5005524;28;20959;-57
2023/05/28 07:41:22;;;;;;;11.00;5.70;;;19.00;1.00;;;;;;5006690;28;20185;-58
2023/05/28 07:43:48;;;;;;;21.07;6.10;;;19.40;1.00;;;;;;5008396;28;20635;-57
2023/05/28 07:46:16;;;;;;;17.37;6.23;;;19.80;1.00;;;;;;5001017;28;20240;-58
2023/05/28 07:48:43;;;;;;;19.57;6.50;;;20.00;1.00;;;;;;5008128;28;20210;-58
2023/05/28 07:51:10;;;;;;;12.00;5.90;;;19.70;1.00;;;;;;5005335;28;20533;-58
2023/05/28 07:53:36;;;;;;;13.10;5.87;;;19.80;1.00;;;;;;5006941;28;20837;-56
2023/05/28 07:56:01;;;;;;;17.23;6.30;;;20.30;1.00;;;;;;5003185;28;20484;-58
2023/05/28 07:58:27;;;;;;;13.10;5.53;;;20.80;1.00;;;;;;5008452;28;20195;-58
2023/05/28 08:00:52;;;;;;;14.17;5.80;;;21.00;1.00;;;;;;5005588;28;20612;-57
2023/05/28 08:03:18;;;;;;;11.47;5.90;;;21.10;1.00;;;;;;5003333;28;20239;-57
2023/05/28 08:05:43;;;;;;;17.30;6.17;;;21.30;1.00;;;;;;5006196;28;20684;-57
2023/05/28 08:08:09;;;;;;;18.90;5.30;;;21.50;1.00;;;;;;5005715;28;20183;-58
2023/05/28 08:10:35;;;;;;;8.80;5.07;;;22.10;1.00;;;;;;5008150;28;20306;-56
2023/05/28 08:13:01;;;;;;;14.87;4.80;;;22.60;1.00;;;;;;5003442;28;20204;-58
2023/05/28 08:15:26;;;;;;;10.93;5.60;;;22.80;1.00;;;;;;5002711;28;20189;-57
2023/05/28 08:17:52;;;;;;;11.30;5.00;;;23.10;1.00;;;;;;5004436;28;20442;-55
2023/05/28 08:20:17;;;;;;;13.50;5.33;;;23.00;1.00;;;;;;5007908;28;20192;-55
2023/05/28 08:22:43;;;;;;;15.30;5.20;;;23.20;1.00;;;;;;5008113;28;20197;-55
2023/05/28 08:25:09;;;;;;;14.03;4.50;;;23.60;1.00;;;;;;5006180;28;20247;-56
2023/05/28 08:27:35;;;;;;;11.80;4.30;;;23.90;1.00;;;;;;5007633;28;20205;-56
2023/05/28 08:30:01;;;;;;;12.77;4.47;;;24.00;1.00;;;;;;5003697;28;20196;-56
2023/05/28 08:32:27;;;;;;;12.30;4.23;;;24.40;1.00;;;;;;5011541;28;20810;-56
2023/05/28 08:34:52;;;;;;;12.17;4.37;;;24.70;1.00;;;;;;5001469;28;20318;-57
2023/05/28 08:37:18;;;;;;;11.80;4.67;;;24.50;1.00;;;;;;5006923;28;20190;-56
2023/05/28 08:39:43;;;;;;;14.80;4.60;;;24.50;1.00;;;;;;5013919;28;20521;-56
2023/05/28 08:42:09;;;;;;;10.40;4.13;;;24.50;1.00;;;;;;5007008;28;20193;-57
2023/05/28 08:44:35;;;;;;;14.53;4.10;;;24.80;1.00;;;;;;5007518;28;20187;-56
2023/05/28 08:47:01;;;;;;;10.70;4.17;;;24.80;1.00;;;;;;5004633;28;20187;-57
2023/05/28 08:49:35;;;;;;;9.97;4.30;;;24.90;1.00;;;;;;5004816;28;20208;-57
2023/05/28 08:52:04;;;;;;;12.20;5.13;;;25.20;1.00;;;;;;5014160;28;20274;-57
2023/05/28 08:54:30;;;;;;;10.50;3.63;;;25.40;1.00;;;;;;5005481;28;20454;-57
2023/05/28 08:56:56;;;;;;;9.47;3.80;;;25.00;99.90;;;;;;5004639;28;20805;-57
2023/05/28 08:59:23;;;;;;;10.23;3.93;;;25.00;1.00;;;;;;5002625;28;20644;-57
2023/05/28 09:01:50;;;;;;;7.40;4.10;;;25.40;99.90;;;;;;5004004;28;20510;-56
2023/05/28 09:04:15;;;;;;;9.80;4.17;;;25.70;99.90;;;;;;5000796;28;20451;-57
2023/05/28 09:06:41;;;;;;;10.77;3.90;;;25.90;99.90;;;;;;5003286;28;20431;-56
2023/05/28 09:09:11;;;;;;;10.17;3.83;;;26.20;99.90;;;;;;5004158;28;20193;-57
2023/05/28 09:11:37;;;;;;;9.93;4.27;;;26.30;99.90;;;;;;5008158;28;21165;-57
2023/05/28 09:14:11;;;;;;;11.50;4.60;;;26.40;99.90;;;;;;5006392;28;20435;-55
2023/05/28 09:16:41;;;;;;;12.17;4.70;;;26.70;99.90;;;;;;5002618;28;20653;-57
2023/05/28 09:19:07;;;;;;;9.80;4.20;;;26.90;99.90;;;;;;5002044;28;20918;-57
2023/05/28 09:21:33;;;;;;;9.10;3.80;;;27.10;99.90;;;;;;5003832;28;20448;-57
2023/05/28 09:24:03;;;;;;;11.20;4.10;;;26.90;99.90;;;;;;5000095;28;20202;-57
2023/05/28 09:26:32;;;;;;;10.83;4.10;;;26.80;99.90;;;;;;5005875;28;20193;-56
2023/05/28 09:28:58;;;;;;;9.53;4.03;;;26.80;99.90;;;;;;5009725;28;20454;-58
2023/05/28 09:31:33;;;;;;;9.60;3.90;;;26.90;99.90;;;;;;5005713;28;20529;-57
2023/05/28 09:34:03;;;;;;;18.30;9.70;;;27.10;99.90;;;;;;5005858;28;20447;-57
2023/05/28 09:36:31;;;;;;;14.20;6.07;;;27.40;99.90;;;;;;5004464;28;20855;-56
2023/05/28 09:38:57;;;;;;;9.30;4.50;;;27.60;99.90;;;;;;5003667;28;20466;-54
2023/05/28 09:41:23;;;;;;;9.40;4.20;;;27.70;99.90;;;;;;4993548;28;21014;-54
2023/05/28 09:43:57;;;;;;;9.20;3.83;;;27.90;99.90;;;;;;5001569;28;20197;-52
2023/05/28 09:46:28;;;;;;;7.63;4.17;;;28.10;99.90;;;;;;5005270;28;20447;-56
2023/05/28 09:48:53;;;;;;;11.80;4.63;;;28.30;99.90;;;;;;5000629;28;20431;-54
2023/05/28 09:51:22;;;;;;;12.47;4.00;;;27.90;99.90;;;;;;5008139;28;20540;-57
2023/05/28 09:53:53;;;;;;;8.57;4.23;;;27.50;99.90;;;;;;5001362;28;20250;-57
2023/05/28 09:56:20;;;;;;;15.23;4.00;;;27.70;99.90;;;;;;4999723;28;20482;-56
2023/05/28 09:58:50;;;;;;;13.00;4.60;;;27.80;99.90;;;;;;5010165;28;20484;-55
2023/05/28 10:01:20;;;;;;;11.97;5.10;;;27.90;99.90;;;;;;4999636;28;20895;-54
2023/05/28 10:03:52;;;;;;;16.47;5.47;;;27.90;99.90;;;;;;5000458;28;20921;-53
2023/05/28 10:06:21;;;;;;;10.50;5.90;;;27.70;99.90;;;;;;5010841;28;20825;-53
2023/05/28 10:08:51;;;;;;;13.20;5.03;;;26.70;99.90;;;;;;4998052;28;20459;-54
2023/05/28 10:11:22;;;;;;;7.70;4.40;;;26.30;99.90;;;;;;4998169;28;20504;-54
2023/05/28 10:13:48;;;;;;;10.97;4.70;;;26.90;99.90;;;;;;5001415;28;20443;-54
2023/05/28 10:16:14;;;;;;;12.27;5.00;;;27.30;99.90;;;;;;5005608;28;20447;-53
2023/05/28 10:18:41;;;;;;;13.20;4.53;;;27.50;99.90;;;;;;5002355;28;20836;-53
2023/05/28 10:21:09;;;;;;;12.70;4.47;;;27.90;99.90;;;;;;5004769;28;20443;-53
2023/05/28 10:23:36;;;;;;;13.80;5.60;;;28.60;99.90;;;;;;5000979;28;20471;-55
2023/05/28 10:26:02;;;;;;;9.57;4.00;;;29.20;99.90;;;;;;5004421;28;20489;-56
2023/05/28 10:28:30;;;;;;;11.63;4.57;;;29.50;99.90;;;;;;5003165;28;20435;-56
2023/05/28 10:31:06;;;;;;;11.83;4.70;;;29.60;99.90;;;;;;5004721;28;21118;-56
2023/05/28 10:33:39;;;;;;;12.17;4.03;;;29.90;99.90;;;;;;5011524;28;20426;-55
2023/05/28 10:36:17;;;;;;;10.23;4.57;;;30.40;99.90;;;;;;5009311;28;20488;-56
2023/05/28 10:38:45;;;;;;;14.10;4.50;;;29.80;99.90;;;;;;5007311;28;20462;-55
2023/05/28 10:41:17;;;;;;;10.07;4.20;;;28.90;99.90;;;;;;5008091;28;20542;-54
2023/05/28 10:43:47;;;;;;;9.77;4.40;;;27.50;99.90;;;;;;5004926;28;20473;-53
2023/05/28 10:46:35;;;;;;;9.10;4.60;;;26.40;99.90;;;;;;5004790;28;20801;-53
2023/05/28 10:49:16;;;;;;;11.40;4.57;;;25.80;99.90;;;;;;5003168;28;20490;-54
2023/05/28 10:51:57;;;;;;;10.47;4.80;;;26.20;99.90;;;;;;4998043;28;20481;-55
2023/05/28 10:54:45;;;;;;;12.93;4.60;;;27.40;99.90;;;;;;5004177;28;20434;-55
2023/05/28 10:57:18;;;;;;;9.13;4.90;;;27.90;99.90;;;;;;5005928;28;20790;-54
2023/05/28 10:59:47;;;;;;;15.03;3.80;;;28.60;99.90;;;;;;5001281;28;20526;-54
2023/05/28 11:02:17;;;;;;;11.90;5.03;;;28.80;99.90;;;;;;5007248;28;20513;-54
2023/05/28 11:04:42;;;;;;;8.97;4.80;;;28.40;99.90;;;;;;5006903;28;20501;-53
2023/05/28 11:07:08;;;;;;;10.60;4.50;;;27.30;99.90;;;;;;5005281;28;20451;-54
2023/05/28 11:09:34;;;;;;;6.97;4.20;;;26.90;99.90;;;;;;5012794;28;20193;-53
2023/05/28 11:12:02;;;;;;;9.53;4.70;;;27.50;99.90;;;;;;5008050;28;20212;-54
2023/05/28 11:14:36;;;;;;;12.13;4.87;;;28.10;99.90;;;;;;5007635;28;20524;-54
2023/05/28 11:17:05;;;;;;;14.37;4.90;;;28.30;99.90;;;;;;5007449;28;20461;-53
2023/05/28 11:19:30;;;;;;;11.90;5.07;;;28.00;99.90;;;;;;5012929;28;20455;-54
2023/05/28 11:21:56;;;;;;;11.30;4.37;;;28.20;99.90;;;;;;5010151;28;20448;-54
2023/05/28 11:24:22;;;;;;;10.00;4.97;;;28.30;99.90;;;;;;5011777;28;20591;-54
2023/05/28 11:26:47;;;;;;;14.23;5.43;;;28.30;99.90;;;;;;5001814;28;20203;-53
2023/05/28 11:29:15;;;;;;;11.30;4.73;;;27.60;99.90;;;;;;5007467;28;21152;-53
2023/05/28 11:31:41;;;;;;;9.60;4.50;;;28.00;99.90;;;;;;5004586;28;20226;-54
2023/05/28 11:34:07;;;;;;;15.67;5.10;;;28.60;99.90;;;;;;5008784;28;20438;-53
2023/05/28 11:36:43;;;;;;;13.07;4.53;;;28.90;99.90;;;;;;5003477;28;20484;-54
2023/05/28 11:39:09;;;;;;;11.23;4.37;;;29.40;99.90;;;;;;5006459;28;21566;-54
2023/05/28 11:41:35;;;;;;;11.73;5.17;;;28.40;99.90;;;;;;5005698;28;20998;-53
2023/05/28 11:44:01;;;;;;;14.30;4.90;;;27.20;99.90;;;;;;5005575;28;20450;-54
2023/05/28 11:46:27;;;;;;;11.47;4.50;;;26.60;99.90;;;;;;5004535;28;20185;-53
2023/05/28 11:48:52;;;;;;;9.73;4.87;;;27.20;99.90;;;;;;5006308;28;20188;-54
2023/05/28 11:51:21;;;;;;;9.87;4.73;;;28.10;99.90;;;;;;5011124;28;20263;-54
2023/05/28 11:53:47;;;;;;;9.87;5.00;;;28.70;99.90;;;;;;5011035;28;20290;-53
2023/05/28 11:56:13;;;;;;;14.70;4.90;;;29.30;99.90;;;;;;5006494;28;20473;-54
2023/05/28 11:58:45;;;;;;;10.30;4.87;;;29.40;99.90;;;;;;5004778;28;20452;-54
2023/05/28 12:01:15;;;;;;;12.10;4.47;;;29.70;99.90;;;;;;5001347;28;20460;-54
2023/05/28 12:03:41;;;;;;;6.93;4.40;;;29.20;99.90;;;;;;5006219;28;20947;-53
2023/05/28 12:06:06;;;;;;;16.00;4.80;;;28.10;99.90;;;;;;5003153;28;20446;-53
2023/05/28 12:08:32;;;;;;;11.60;5.37;;;26.90;99.90;;;;;;5006113;28;20187;-54
2023/05/28 12:11:02;;;;;;;14.03;5.40;;;26.00;99.90;;;;;;5003989;28;20216;-54
2023/05/28 12:13:32;;;;;;;13.30;5.10;;;24.90;99.90;;;;;;5007692;28;20206;-55
2023/05/28 12:16:09;;;;;;;9.73;5.50;;;25.50;99.90;;;;;;5012275;28;20454;-53
2023/05/28 12:18:40;;;;;;;10.37;4.60;;;26.90;99.90;;;;;;5008275;28;20928;-54
2023/05/28 12:21:10;;;;;;;10.93;4.80;;;28.10;99.90;;;;;;5003172;28;20467;-54
2023/05/28 12:23:36;;;;;;;11.50;4.77;;;29.10;99.90;;;;;;5005327;28;20535;-52
2023/05/28 12:26:02;;;;;;;7.80;4.03;;;29.70;99.90;;;;;;5003411;28;20454;-54
2023/05/28 12:28:28;;;;;;;9.57;4.07;;;29.90;99.90;;;;;;5009636;28;20184;-56
2023/05/28 12:30:55;;;;;;;13.30;5.50;;;30.40;99.90;;;;;;5004078;28;20470;-55
2023/05/28 12:33:21;;;;;;;9.30;4.30;;;30.10;99.90;;;;;;5009995;28;20309;-56
2023/05/28 12:35:47;;;;;;;9.13;5.23;;;29.70;99.90;;;;;;5007916;28;20446;-56
2023/05/28 12:38:14;;;;;;;9.63;4.90;;;28.90;99.90;;;;;;5004772;28;20436;-55